Time;durP1;ratioP1;P1;durP2;ratioP2;P2;SDS_P1;SDS_P2;PMS_P1;PMS_P2;Temp;Humidity;BMP_temperature;BMP_pressure;BME280_temperature;BME280_humidity;BME280_pressure;Samples;Min_cycle;Max_cycle;Signal;HPM_P1;HPM_P2
2021/11/25 00:03:41;;;;;;;18.93;11.37;;;3.80;97.60;;;;;;8238052;28;20456;-78
2021/11/25 00:07:42;;;;;;;21.07;13.67;;;3.70;97.90;;;;;;8256046;28;20227;-78
2021/11/25 00:11:42;;;;;;;21.47;14.40;;;3.60;98.10;;;;;;8240110;28;20200;-79
2021/11/25 00:15:43;;;;;;;22.77;15.77;;;3.40;98.20;;;;;;8234549;28;20278;-79
2021/11/25 00:19:43;;;;;;;21.77;14.23;;;3.40;98.20;;;;;;8235826;28;20223;-79
2021/11/25 00:23:44;;;;;;;25.13;14.00;;;3.30;98.20;;;;;;8231488;28;20235;-77
2021/11/25 00:27:45;;;;;;;26.20;13.27;;;3.10;98.10;;;;;;8231933;28;20607;-78
2021/11/25 00:31:47;;;;;;;19.30;13.50;;;3.00;98.00;;;;;;8221821;28;20444;-77
2021/11/25 00:35:47;;;;;;;21.13;13.20;;;2.90;98.10;;;;;;8227967;28;20449;-77
2021/11/25 00:39:48;;;;;;;18.90;12.47;;;2.80;98.20;;;;;;8227044;28;20992;-78
2021/11/25 00:43:49;;;;;;;18.23;12.67;;;2.70;98.40;;;;;;8227591;28;20285;-78
2021/11/25 00:47:50;;;;;;;17.07;11.47;;;2.50;98.50;;;;;;8223852;28;20227;-78
2021/11/25 00:51:50;;;;;;;20.83;11.67;;;2.50;98.60;;;;;;8247235;28;20455;-79
2021/11/25 00:55:51;;;;;;;18.63;12.40;;;2.40;98.70;;;;;;8241777;28;20202;-78
2021/11/25 00:59:52;;;;;;;19.53;12.07;;;2.30;98.70;;;;;;8231620;28;20206;-77
2021/11/25 01:03:53;;;;;;;19.10;12.07;;;2.30;99.00;;;;;;8228348;28;20445;-77
2021/11/25 01:07:53;;;;;;;16.90;11.20;;;2.30;99.00;;;;;;8225698;28;20190;-78
2021/11/25 01:12:01;;;;;;;18.30;12.10;;;2.20;99.00;;;;;;8229953;28;20645;-78
2021/11/25 01:16:02;;;;;;;20.17;10.77;;;2.20;99.20;;;;;;8226989;28;20191;-79
2021/11/25 01:20:05;;;;;;;19.37;11.80;;;2.20;99.50;;;;;;8233387;28;20473;-78
2021/11/25 01:24:05;;;;;;;21.67;11.67;;;2.30;99.60;;;;;;8232935;28;20452;-78
2021/11/25 01:28:12;;;;;;;24.40;12.47;;;2.30;99.60;;;;;;8225573;28;20452;-77
2021/11/25 01:32:12;;;;;;;18.33;11.50;;;2.30;99.60;;;;;;8223430;28;20218;-78
2021/11/25 01:36:13;;;;;;;32.00;14.20;;;2.30;99.70;;;;;;8223540;28;20460;-78
2021/11/25 01:40:14;;;;;;;27.23;14.47;;;2.40;99.80;;;;;;8233218;28;20741;-77
2021/11/25 01:44:15;;;;;;;33.40;13.10;;;2.50;99.90;;;;;;8226442;28;20402;-78
2021/11/25 01:48:17;;;;;;;17.03;10.80;;;2.50;99.90;;;;;;8224088;28;20485;-78
2021/11/25 01:52:18;;;;;;;20.07;12.10;;;2.60;99.90;;;;;;8224055;28;20446;-78
2021/11/25 01:56:19;;;;;;;22.53;13.80;;;2.60;99.90;;;;;;8226932;28;20446;-78
2021/11/25 02:00:38;;;;;;;21.87;11.67;;;2.70;99.90;;;;;;8211360;28;20651;-78
2021/11/25 02:04:39;;;;;;;21.73;13.27;;;2.70;99.90;;;;;;8224113;23;20491;-79
2021/11/25 02:08:40;;;;;;;25.23;11.93;;;2.70;99.80;;;;;;8231223;28;21433;-79
2021/11/25 02:12:41;;;;;;;15.70;12.27;;;2.70;99.70;;;;;;8236663;28;20788;-78
2021/11/25 02:16:42;;;;;;;19.93;13.70;;;2.70;99.70;;;;;;8243789;28;20760;-79
2021/11/25 02:20:49;;;;;;;18.10;12.90;;;2.80;99.70;;;;;;8239971;28;20473;-78
2021/11/25 02:24:50;;;;;;;20.53;12.37;;;2.70;99.70;;;;;;8233486;28;20196;-78
2021/11/25 02:28:52;;;;;;;23.10;12.80;;;2.70;99.70;;;;;;8239336;28;21061;-78
2021/11/25 02:32:52;;;;;;;18.07;11.20;;;2.70;99.60;;;;;;8243120;28;20556;-78
2021/11/25 02:36:53;;;;;;;23.30;11.83;;;2.60;99.60;;;;;;8236643;28;20479;-78
2021/11/25 02:40:56;;;;;;;16.10;10.37;;;2.70;99.70;;;;;;8240914;28;20220;-78
2021/11/25 02:44:57;;;;;;;19.37;12.43;;;2.70;99.80;;;;;;8235203;28;20544;-78
2021/11/25 02:48:59;;;;;;;20.70;13.77;;;2.80;99.90;;;;;;8231726;28;20447;-78
2021/11/25 02:52:59;;;;;;;19.10;11.93;;;2.90;99.90;;;;;;8256844;28;20201;-79
2021/11/25 02:57:01;;;;;;;25.33;15.70;;;3.00;99.90;;;;;;8229750;28;20498;-78
2021/11/25 03:01:24;;;;;;;22.90;11.77;;;3.10;99.90;;;;;;8226711;28;20227;-78
2021/11/25 03:05:25;;;;;;;23.30;12.53;;;3.20;99.90;;;;;;8227028;28;20489;-79
2021/11/25 03:09:27;;;;;;;21.57;12.70;;;3.30;99.90;;;;;;8235593;28;20443;-79
2021/11/25 03:13:29;;;;;;;20.83;11.03;;;3.40;99.90;;;;;;8232533;28;20191;-80
2021/11/25 03:17:29;;;;;;;21.83;13.47;;;3.50;99.90;;;;;;8225034;28;20476;-78
2021/11/25 03:21:32;;;;;;;19.53;11.07;;;3.60;99.90;;;;;;8240606;28;20476;-78
2021/11/25 03:25:33;;;;;;;15.50;11.47;;;3.70;99.90;;;;;;8228099;28;20195;-79
2021/11/25 03:29:34;;;;;;;20.13;11.27;;;3.80;99.90;;;;;;8228220;28;20522;-79
2021/11/25 03:33:34;;;;;;;15.83;11.57;;;3.90;99.90;;;;;;8238855;28;20451;-79
2021/11/25 03:37:36;;;;;;;19.83;12.37;;;4.00;99.90;;;;;;8234017;28;20220;-78
2021/11/25 03:41:37;;;;;;;19.27;10.30;;;4.00;99.90;;;;;;8237611;28;20225;-79
2021/11/25 03:45:38;;;;;;;14.83;10.00;;;4.00;99.90;;;;;;8236184;28;20448;-78
2021/11/25 03:49:39;;;;;;;15.67;9.60;;;4.00;99.90;;;;;;8232349;28;20274;-78
2021/11/25 03:53:43;;;;;;;18.20;11.07;;;4.10;99.90;;;;;;8238831;28;20452;-79
2021/11/25 03:57:45;;;;;;;17.47;11.40;;;4.10;99.90;;;;;;8238154;28;20185;-78
2021/11/25 04:01:45;;;;;;;16.03;10.03;;;4.10;99.90;;;;;;8232367;28;20479;-78
2021/11/25 04:05:46;;;;;;;12.23;7.93;;;4.20;99.90;;;;;;8248768;28;20496;-78
2021/11/25 04:09:47;;;;;;;17.23;10.23;;;4.20;99.90;;;;;;8233267;28;20184;-78
2021/11/25 04:13:47;;;;;;;13.70;9.70;;;4.20;99.90;;;;;;8232221;28;20636;-78
2021/11/25 04:17:48;;;;;;;13.90;9.33;;;4.30;99.90;;;;;;8246004;28;20189;-79
2021/11/25 04:21:49;;;;;;;20.33;12.77;;;4.40;99.90;;;;;;8234381;28;20217;-78
2021/11/25 04:25:49;;;;;;;18.03;11.73;;;4.40;99.90;;;;;;8230926;28;20181;-79
2021/11/25 04:30:11;;;;;;;21.83;11.87;;;4.50;99.90;;;;;;8258479;28;20558;-80
2021/11/25 04:38:31;;;;;;;22.00;12.27;;;4.50;99.90;;;;;;8265330;28;20452;-80
2021/11/25 04:42:31;;;;;;;19.30;12.00;;;4.50;99.80;;;;;;8260889;28;20505;-79
2021/11/25 04:46:34;;;;;;;17.13;12.03;;;4.60;99.80;;;;;;8262643;28;20461;-78
2021/11/25 04:50:35;;;;;;;15.77;9.33;;;4.60;99.70;;;;;;8260147;28;20164;-78
2021/11/25 04:54:36;;;;;;;19.60;11.93;;;4.70;99.60;;;;;;8254743;28;20437;-79
2021/11/25 04:58:37;;;;;;;23.10;13.07;;;4.70;99.50;;;;;;8267140;28;20420;-78
2021/11/25 05:02:38;;;;;;;26.70;16.50;;;4.70;99.40;;;;;;8265996;28;20523;-79
2021/11/25 05:06:38;;;;;;;17.87;12.03;;;4.80;99.30;;;;;;8249270;28;20704;-79
2021/11/25 05:10:40;;;;;;;14.73;9.97;;;4.80;99.00;;;;;;8250784;28;20199;-78
2021/11/25 05:14:40;;;;;;;17.67;10.60;;;4.70;98.90;;;;;;8248519;28;20188;-79
2021/11/25 05:18:41;;;;;;;13.17;10.80;;;4.60;98.80;;;;;;8251198;28;20437;-78
2021/11/25 05:22:43;;;;;;;12.07;9.80;;;4.50;98.90;;;;;;8240121;28;20225;-78
2021/11/25 05:26:44;;;;;;;17.90;11.17;;;4.40;98.80;;;;;;8235332;28;20314;-79
2021/11/25 05:30:45;;;;;;;16.77;11.57;;;4.40;98.90;;;;;;8239157;28;20444;-78
2021/11/25 05:34:45;;;;;;;18.10;11.70;;;4.40;98.90;;;;;;8221732;28;20437;-79
2021/11/25 05:38:46;;;;;;;15.77;8.70;;;4.30;98.70;;;;;;8224311;28;20192;-78
2021/11/25 05:42:47;;;;;;;16.03;10.93;;;4.30;98.80;;;;;;8219033;28;20209;-78
2021/11/25 05:46:48;;;;;;;17.37;9.87;;;4.30;98.80;;;;;;8240656;28;20177;-79
2021/11/25 05:50:49;;;;;;;18.47;10.97;;;4.30;98.80;;;;;;8250304;28;20225;-79
2021/11/25 05:54:50;;;;;;;16.00;11.30;;;4.40;98.90;;;;;;8235594;28;20193;-79
2021/11/25 05:58:54;;;;;;;17.50;10.60;;;4.40;98.80;;;;;;8244814;28;20847;-78
2021/11/25 06:02:55;;;;;;;24.13;12.00;;;4.40;98.80;;;;;;8231272;28;20899;-78
2021/11/25 06:06:56;;;;;;;18.60;12.07;;;4.50;98.80;;;;;;8232970;28;20473;-78
2021/11/25 06:10:59;;;;;;;23.73;13.80;;;4.60;98.80;;;;;;8240359;28;20442;-79
2021/11/25 06:15:00;;;;;;;22.37;13.37;;;4.60;98.80;;;;;;8234084;28;20222;-79
2021/11/25 06:19:00;;;;;;;20.40;11.87;;;4.60;98.80;;;;;;8227169;28;20552;-78
2021/11/25 06:23:01;;;;;;;20.70;12.63;;;4.60;98.70;;;;;;8215036;28;20225;-79
2021/11/25 06:27:02;;;;;;;19.50;11.40;;;4.70;99.00;;;;;;8216635;28;20256;-78
2021/11/25 06:31:03;;;;;;;17.60;11.27;;;4.60;98.70;;;;;;8222740;28;20972;-80
2021/11/25 06:35:09;;;;;;;18.33;10.33;;;4.60;98.70;;;;;;8237559;28;20475;-79
2021/11/25 06:39:11;;;;;;;15.10;10.63;;;4.60;98.80;;;;;;8252384;28;20170;-79
2021/11/25 06:43:12;;;;;;;25.10;15.03;;;4.60;98.90;;;;;;8242524;28;20531;-79
2021/11/25 06:47:13;;;;;;;20.40;12.93;;;4.60;98.90;;;;;;8228986;28;20444;-79
2021/11/25 06:51:13;;;;;;;19.20;12.50;;;4.60;98.90;;;;;;8225795;28;20502;-78
2021/11/25 06:55:16;;;;;;;23.47;13.33;;;4.70;98.90;;;;;;8226278;28;20197;-78
2021/11/25 06:59:17;;;;;;;23.03;13.53;;;4.70;99.00;;;;;;8223789;28;20194;-77
2021/11/25 07:03:17;;;;;;;35.30;16.23;;;4.80;99.00;;;;;;8239144;28;20551;-77
2021/11/25 07:07:18;;;;;;;35.27;16.00;;;4.80;98.90;;;;;;8231041;28;20229;-79
2021/11/25 07:11:19;;;;;;;27.13;14.90;;;4.90;98.90;;;;;;8235166;28;20328;-79
2021/11/25 07:15:22;;;;;;;29.70;15.73;;;4.90;98.80;;;;;;8251914;28;20178;-79
2021/11/25 07:19:23;;;;;;;27.50;13.93;;;5.00;98.70;;;;;;8244386;28;20273;-79
2021/11/25 07:23:24;;;;;;;30.10;15.20;;;5.10;98.40;;;;;;8247222;28;20919;-78
2021/11/25 07:27:24;;;;;;;21.57;13.47;;;5.20;98.20;;;;;;8236197;28;20675;-79
2021/11/25 07:31:28;;;;;;;28.67;16.47;;;5.20;98.10;;;;;;8236976;28;20285;-79
2021/11/25 07:35:29;;;;;;;32.50;18.33;;;5.30;97.80;;;;;;8234436;28;20179;-78
2021/11/25 07:39:30;;;;;;;27.17;14.43;;;5.40;97.60;;;;;;8231871;28;20444;-79
2021/11/25 07:43:31;;;;;;;18.10;12.30;;;5.50;97.60;;;;;;8262736;28;20197;-78
2021/11/25 07:47:34;;;;;;;21.80;13.17;;;5.50;97.30;;;;;;8236007;28;20453;-78
2021/11/25 07:51:37;;;;;;;27.03;14.20;;;5.50;97.60;;;;;;8239999;28;20663;-78
2021/11/25 07:55:37;;;;;;;17.97;11.90;;;5.50;97.40;;;;;;8237206;28;20456;-79
2021/11/25 07:59:38;;;;;;;22.20;11.20;;;5.50;97.40;;;;;;8238471;28;20462;-78
2021/11/25 08:03:39;;;;;;;20.37;12.30;;;5.50;97.40;;;;;;8235479;28;20181;-78
2021/11/25 08:07:41;;;;;;;22.80;12.00;;;5.60;97.40;;;;;;8233504;28;21025;-79
2021/11/25 08:11:42;;;;;;;22.60;13.77;;;5.70;97.30;;;;;;8244647;28;20181;-79
2021/11/25 08:15:42;;;;;;;26.13;13.77;;;5.90;97.30;;;;;;8253586;28;20476;-78
2021/11/25 08:19:43;;;;;;;23.00;14.37;;;6.00;97.30;;;;;;8234790;28;20277;-79
2021/11/25 08:23:44;;;;;;;29.90;13.80;;;6.10;97.30;;;;;;8231928;28;20182;-78
2021/11/25 08:27:44;;;;;;;23.30;14.40;;;6.30;97.10;;;;;;8250125;28;20845;-78
2021/11/25 08:31:45;;;;;;;27.47;14.97;;;6.20;96.50;;;;;;8241893;28;20193;-79
2021/11/25 08:35:46;;;;;;;21.03;12.23;;;6.20;95.80;;;;;;8234536;28;20208;-79
2021/11/25 08:39:47;;;;;;;30.40;17.20;;;6.20;95.70;;;;;;8235496;28;20214;-78
2021/11/25 08:43:48;;;;;;;29.97;11.97;;;6.20;95.60;;;;;;8269459;28;20444;-79
2021/11/25 08:47:49;;;;;;;21.73;13.30;;;6.30;96.00;;;;;;8235744;28;20194;-81
2021/11/25 08:51:51;;;;;;;19.97;11.30;;;6.40;96.30;;;;;;8243375;28;20198;-78
2021/11/25 08:55:52;;;;;;;22.27;13.37;;;6.40;96.50;;;;;;8241406;28;20473;-78
2021/11/25 08:59:52;;;;;;;24.77;15.13;;;6.60;96.30;;;;;;8237449;28;20999;-79
2021/11/25 09:03:53;;;;;;;18.50;13.30;;;6.70;96.10;;;;;;8230049;28;20697;-78
2021/11/25 09:07:54;;;;;;;20.00;13.00;;;6.90;95.70;;;;;;8264431;28;20190;-79
2021/11/25 09:11:54;;;;;;;21.20;14.20;;;7.00;95.60;;;;;;8278480;28;20203;-77
2021/11/25 09:15:55;;;;;;;20.33;12.90;;;7.10;95.70;;;;;;8243602;28;20192;-78
2021/11/25 09:19:56;;;;;;;23.37;13.77;;;7.20;95.50;;;;;;8242718;28;20818;-79
2021/11/25 09:23:59;;;;;;;18.90;11.73;;;7.20;95.00;;;;;;8235747;28;20217;-79
2021/11/25 09:28:01;;;;;;;23.77;13.23;;;7.30;95.20;;;;;;8252145;28;20435;-79
2021/11/25 09:32:03;;;;;;;20.13;13.57;;;7.50;95.40;;;;;;8256605;28;20942;-79
2021/11/25 09:36:03;;;;;;;28.00;14.43;;;7.70;95.40;;;;;;8243240;28;20440;-78
2021/11/25 09:40:09;;;;;;;28.47;12.30;;;7.70;95.20;;;;;;8222382;28;20467;-77
2021/11/25 09:44:10;;;;;;;22.37;12.60;;;8.00;95.30;;;;;;8222131;28;20181;-76
2021/11/25 09:48:12;;;;;;;15.40;10.70;;;8.40;94.70;;;;;;8220095;28;20444;-76
2021/11/25 09:52:12;;;;;;;16.00;10.90;;;8.90;93.00;;;;;;8236474;28;20213;-75
2021/11/25 09:56:13;;;;;;;7.60;5.83;;;9.50;90.70;;;;;;8225481;28;20479;-75
2021/11/25 10:00:14;;;;;;;8.23;6.13;;;10.00;86.80;;;;;;8237725;28;20283;-75
2021/11/25 10:04:15;;;;;;;7.40;6.60;;;10.40;83.80;;;;;;8215209;28;20229;-78
2021/11/25 10:08:37;;;;;;;12.27;7.30;;;10.80;81.40;;;;;;8218319;28;20437;-78
2021/11/25 10:12:38;;;;;;;8.63;6.90;;;10.90;80.60;;;;;;8218044;28;20178;-77
2021/11/25 10:16:44;;;;;;;8.63;6.97;;;11.20;82.30;;;;;;8222160;28;20979;-77
2021/11/25 10:20:51;;;;;;;8.90;6.27;;;11.50;79.80;;;;;;8226239;28;20293;-78
2021/11/25 10:24:52;;;;;;;7.67;6.20;;;11.80;77.90;;;;;;8228176;28;20666;-77
2021/11/25 10:28:55;;;;;;;12.53;7.60;;;12.20;77.60;;;;;;8223658;28;20449;-78
2021/11/25 10:32:57;;;;;;;9.67;7.70;;;12.40;75.80;;;;;;8227645;28;20186;-77
2021/11/25 10:41:15;;;;;;;10.20;7.20;;;12.50;73.90;;;;;;8223688;28;20971;-78
2021/11/25 10:45:18;;;;;;;8.97;6.80;;;12.40;75.00;;;;;;8223431;28;20453;-77
2021/11/25 10:49:36;;;;;;;10.00;6.60;;;12.30;75.50;;;;;;8211623;28;20554;-78
2021/11/25 10:53:36;;;;;;;10.70;7.20;;;12.10;74.60;;;;;;8214602;28;20453;-78
2021/11/25 10:57:40;;;;;;;11.23;7.53;;;11.70;75.30;;;;;;8253039;28;20436;-78
2021/11/25 11:01:43;;;;;;;10.20;6.80;;;11.60;76.40;;;;;;8233883;28;20296;-77
2021/11/25 11:05:55;;;;;;;9.40;6.17;;;11.80;76.50;;;;;;8237632;28;20481;-77
2021/11/25 11:09:57;;;;;;;12.20;8.33;;;11.90;75.70;;;;;;8252092;28;20446;-77
2021/11/25 11:14:17;;;;;;;13.93;9.30;;;11.80;75.50;;;;;;8219241;28;20473;-77
2021/11/25 11:22:55;;;;;;;15.07;9.63;;;11.90;76.30;;;;;;8228026;28;20500;-77
2021/11/25 11:27:05;;;;;;;9.40;8.00;;;12.10;75.80;;;;;;8256302;28;20488;-78
2021/11/25 11:31:06;;;;;;;14.20;9.50;;;12.10;74.70;;;;;;8217628;28;20451;-80
2021/11/25 11:35:08;;;;;;;14.80;8.57;;;12.00;74.80;;;;;;8245400;28;20954;-79
2021/11/25 11:39:11;;;;;;;9.73;6.90;;;11.90;74.80;;;;;;8239213;28;20467;-79
2021/11/25 11:43:12;;;;;;;8.83;7.43;;;11.90;75.60;;;;;;8233588;28;20483;-77
2021/11/25 11:47:13;;;;;;;12.53;7.87;;;12.10;76.00;;;;;;8223331;28;20966;-78
2021/11/25 11:51:17;;;;;;;13.00;7.40;;;12.10;75.70;;;;;;8238269;28;20487;-77
2021/11/25 11:55:34;;;;;;;10.13;6.80;;;12.00;75.40;;;;;;8242418;28;20470;-78
2021/11/25 11:59:38;;;;;;;10.80;7.50;;;11.80;75.90;;;;;;8245037;28;20458;-78
2021/11/25 12:03:44;;;;;;;10.70;7.80;;;11.60;76.80;;;;;;8231826;28;20904;-78
2021/11/25 12:07:45;;;;;;;13.53;7.53;;;11.40;76.90;;;;;;8231627;28;20455;-78
2021/11/25 12:11:55;;;;;;;13.50;8.57;;;11.10;77.40;;;;;;8231215;28;20807;-79
2021/11/25 12:16:17;;;;;;;12.63;7.97;;;11.00;77.60;;;;;;8228753;28;20183;-77
2021/11/25 12:20:35;;;;;;;19.13;10.70;;;11.10;77.70;;;;;;8241090;28;20532;-77
2021/11/25 12:24:49;;;;;;;15.87;10.50;;;11.20;78.20;;;;;;8227330;28;20464;-78
2021/11/25 12:28:49;;;;;;;14.67;10.40;;;11.20;78.50;;;;;;8247044;28;20462;-76
2021/11/25 12:32:53;;;;;;;18.00;11.07;;;11.00;78.60;;;;;;8231706;28;20477;-78
2021/11/25 12:36:53;;;;;;;11.10;9.53;;;10.70;79.10;;;;;;8227282;28;20189;-80
2021/11/25 12:40:59;;;;;;;19.60;11.40;;;10.50;79.20;;;;;;8224696;28;21040;-79
2021/11/25 12:45:00;;;;;;;16.47;9.90;;;10.30;79.50;;;;;;8226987;28;20197;-78
2021/11/25 12:49:01;;;;;;;16.40;9.33;;;10.20;80.20;;;;;;8222147;28;20472;-78
2021/11/25 12:53:10;;;;;;;23.47;10.23;;;10.10;80.60;;;;;;8221011;28;20249;-78
2021/11/25 12:57:12;;;;;;;15.13;10.43;;;10.10;80.70;;;;;;8230278;28;20498;-78
2021/11/25 13:01:29;;;;;;;19.67;10.63;;;9.90;80.90;;;;;;8234134;28;20480;-78
2021/11/25 13:05:30;;;;;;;15.90;10.80;;;9.90;81.00;;;;;;8244263;28;20494;-78
2021/11/25 13:09:34;;;;;;;21.20;12.93;;;9.80;81.40;;;;;;8228644;28;20491;-80
2021/11/25 13:13:35;;;;;;;17.57;12.10;;;9.80;82.20;;;;;;8233481;28;20480;-78
2021/11/25 13:17:36;;;;;;;15.87;11.50;;;9.90;82.10;;;;;;8264909;28;20457;-80
2021/11/25 13:21:44;;;;;;;20.30;12.63;;;10.00;82.30;;;;;;8259015;28;20301;-78
2021/11/25 13:25:59;;;;;;;19.13;11.93;;;10.00;81.50;;;;;;8230005;28;20437;-78
2021/11/25 13:30:02;;;;;;;21.83;12.20;;;9.90;81.90;;;;;;8262843;28;20957;-78
2021/11/25 13:34:08;;;;;;;16.47;11.17;;;9.80;82.00;;;;;;8234881;28;20448;-77
2021/11/25 13:38:22;;;;;;;19.87;11.27;;;9.70;83.00;;;;;;4867263;28;10023866;-79
2021/11/25 13:42:23;;;;;;;17.90;12.20;;;9.70;82.60;;;;;;6799492;29;10001244;-78
2021/11/25 13:46:34;;;;;;;16.70;11.20;;;9.60;83.00;;;;;;8163533;29;20448;-79
2021/11/25 13:50:41;;;;;;;20.10;12.50;;;9.50;83.30;;;;;;8158531;29;20195;-77
2021/11/25 13:54:42;;;;;;;22.90;13.00;;;9.40;84.30;;;;;;8159534;29;20435;-78
2021/11/25 13:58:43;;;;;;;17.33;11.77;;;9.50;84.30;;;;;;8156660;29;20452;-78
2021/11/25 14:02:45;;;;;;;23.47;13.27;;;9.40;83.80;;;;;;8153440;29;20218;-77
2021/11/25 14:06:45;;;;;;;22.83;12.27;;;9.30;84.90;;;;;;8150730;29;20922;-78
2021/11/25 14:10:46;;;;;;;16.97;10.90;;;9.30;85.10;;;;;;8158026;29;20522;-78
2021/11/25 14:14:48;;;;;;;17.07;12.30;;;9.30;85.10;;;;;;8158494;29;20258;-78
2021/11/25 14:18:52;;;;;;;22.60;13.17;;;9.10;84.90;;;;;;8160364;29;20458;-79
2021/11/25 14:22:54;;;;;;;19.47;13.57;;;9.10;86.00;;;;;;8157935;29;20474;-78
2021/11/25 14:31:14;;;;;;;20.20;13.07;;;9.00;86.80;;;;;;8164349;29;20458;-79
2021/11/25 14:35:43;;;;;;;21.70;14.17;;;9.00;86.70;;;;;;8460244;27;20651;-79
2021/11/25 14:39:44;;;;;;;26.13;12.53;;;9.00;87.30;;;;;;8425481;28;20830;-78
2021/11/25 14:44:03;;;;;;;20.67;13.10;;;9.10;87.80;;;;;;8429713;28;20476;-78
2021/11/25 14:48:17;;;;;;;19.40;11.87;;;9.10;88.10;;;;;;8427723;28;20219;-79
2021/11/25 14:52:22;;;;;;;19.27;11.60;;;9.00;88.40;;;;;;8424757;28;20993;-78
2021/11/25 14:56:29;;;;;;;25.33;13.80;;;9.00;88.60;;;;;;8427090;28;20937;-80
2021/11/25 15:00:39;;;;;;;24.13;15.10;;;8.90;88.80;;;;;;8432510;28;20438;-79
2021/11/25 15:04:41;;;;;;;20.20;12.07;;;8.90;88.80;;;;;;8423901;28;20509;-80
2021/11/25 15:08:42;;;;;;;18.57;12.33;;;8.70;88.40;;;;;;8428412;28;21254;-79
2021/11/25 15:12:43;;;;;;;27.50;12.60;;;8.50;89.40;;;;;;8424130;28;20527;-78
2021/11/25 15:16:46;;;;;;;33.67;14.17;;;8.40;90.10;;;;;;8428884;28;20184;-79
2021/11/25 15:20:47;;;;;;;29.00;12.83;;;8.40;90.50;;;;;;8428215;28;20457;-79
2021/11/25 15:24:48;;;;;;;23.80;11.90;;;8.30;90.70;;;;;;8430002;28;20450;-78
2021/11/25 15:28:49;;;;;;;27.37;13.60;;;8.10;91.50;;;;;;8420373;28;20443;-79
2021/11/25 15:32:49;;;;;;;35.70;16.60;;;8.00;92.30;;;;;;8437410;28;20234;-79
2021/11/25 15:36:50;;;;;;;33.83;16.20;;;7.90;92.90;;;;;;8476428;28;20250;-80
2021/11/25 15:40:51;;;;;;;31.17;18.10;;;7.90;93.60;;;;;;8435317;28;20194;-78
2021/11/25 15:44:52;;;;;;;39.60;20.70;;;7.80;94.10;;;;;;8440431;28;20464;-79
2021/11/25 15:48:53;;;;;;;33.63;18.40;;;7.80;94.60;;;;;;8435892;28;20503;-79
2021/11/25 15:52:54;;;;;;;39.60;19.40;;;7.90;94.90;;;;;;8419541;28;20991;-78
2021/11/25 15:56:55;;;;;;;37.30;17.50;;;7.80;95.10;;;;;;8435702;28;20192;-79
2021/11/25 16:00:57;;;;;;;37.63;18.30;;;7.80;95.30;;;;;;8422814;28;20196;-79
2021/11/25 16:04:57;;;;;;;40.53;18.67;;;7.70;95.40;;;;;;8435285;28;20191;-77
2021/11/25 16:08:58;;;;;;;29.47;17.30;;;7.70;95.50;;;;;;8447069;28;20445;-78
2021/11/25 16:12:59;;;;;;;51.07;18.90;;;7.70;95.60;;;;;;8437350;28;20237;-79
2021/11/25 16:17:02;;;;;;;39.60;19.70;;;7.70;95.70;;;;;;8430153;28;20187;-79
2021/11/25 16:21:04;;;;;;;38.80;19.23;;;7.70;95.80;;;;;;8424891;28;20444;-79
2021/11/25 16:25:06;;;;;;;48.93;19.37;;;7.70;95.90;;;;;;8427339;28;20468;-79
2021/11/25 16:29:06;;;;;;;45.27;20.37;;;7.60;96.10;;;;;;8411576;28;20445;-78
2021/11/25 16:33:07;;;;;;;45.83;20.07;;;7.60;96.20;;;;;;8412476;28;20846;-78
2021/11/25 16:37:08;;;;;;;46.93;22.40;;;7.60;96.40;;;;;;8395612;28;20684;-78
2021/11/25 16:41:10;;;;;;;40.33;18.57;;;7.60;96.50;;;;;;8407585;28;20217;-77
2021/11/25 16:45:13;;;;;;;45.50;20.43;;;7.60;96.50;;;;;;8409113;28;20441;-79
2021/11/25 16:49:25;;;;;;;52.13;21.77;;;7.60;96.60;;;;;;8408800;28;20453;-79
2021/11/25 16:53:31;;;;;;;46.60;18.63;;;7.60;96.70;;;;;;8415067;28;21121;-78
2021/11/25 16:57:32;;;;;;;41.03;19.57;;;7.60;96.80;;;;;;8426196;28;20444;-78
2021/11/25 17:01:32;;;;;;;40.70;19.70;;;7.60;96.70;;;;;;8423243;28;20522;-79
2021/11/25 17:05:33;;;;;;;43.20;18.87;;;7.50;96.90;;;;;;8434546;28;20185;-79
2021/11/25 17:09:35;;;;;;;40.07;18.07;;;7.50;97.00;;;;;;8420081;28;20191;-79
2021/11/25 17:13:36;;;;;;;38.10;19.93;;;7.50;97.10;;;;;;8420590;28;20291;-78
2021/11/25 17:17:38;;;;;;;41.33;20.20;;;7.50;97.20;;;;;;8418079;28;20454;-80
2021/11/25 17:21:38;;;;;;;52.57;21.87;;;7.50;97.40;;;;;;8418907;28;20179;-79
2021/11/25 17:25:41;;;;;;;40.03;18.80;;;7.50;97.40;;;;;;8424631;28;21052;-79
2021/11/25 17:29:42;;;;;;;44.07;20.73;;;7.50;97.30;;;;;;8456869;28;20434;-78
2021/11/25 17:33:43;;;;;;;41.07;21.80;;;7.50;97.40;;;;;;8460630;28;20602;-79
2021/11/25 17:37:44;;;;;;;45.23;20.30;;;7.50;97.30;;;;;;8445049;28;20200;-79
2021/11/25 17:41:45;;;;;;;51.23;21.00;;;7.50;97.30;;;;;;8436812;28;20553;-80
2021/11/25 17:45:55;;;;;;;59.27;25.23;;;7.50;97.30;;;;;;8443908;28;20188;-79
2021/11/25 17:49:55;;;;;;;49.17;23.07;;;7.40;97.40;;;;;;8448784;28;20249;-79
2021/11/25 17:53:58;;;;;;;48.77;23.80;;;7.40;97.50;;;;;;8422790;28;20551;-79
2021/11/25 17:57:58;;;;;;;53.07;23.50;;;7.30;97.50;;;;;;8425594;28;20563;-80
2021/11/25 18:01:59;;;;;;;42.73;23.30;;;7.30;97.60;;;;;;8416755;28;20491;-80
2021/11/25 18:06:01;;;;;;;45.47;22.20;;;7.40;97.80;;;;;;8436431;28;20187;-80
2021/11/25 18:10:03;;;;;;;55.57;22.83;;;7.40;97.80;;;;;;8425774;28;20264;-79
2021/11/25 18:14:05;;;;;;;46.13;22.57;;;7.40;97.90;;;;;;8416541;28;20495;-80
2021/11/25 18:18:05;;;;;;;51.10;23.30;;;7.30;97.60;;;;;;8423269;28;20452;-79
2021/11/25 18:22:07;;;;;;;42.20;20.53;;;7.30;97.70;;;;;;8426981;28;20454;-80
2021/11/25 18:26:14;;;;;;;46.90;22.90;;;7.20;97.80;;;;;;8443348;28;20189;-79
2021/11/25 18:30:15;;;;;;;37.33;21.17;;;7.20;97.90;;;;;;8425881;28;20446;-81
2021/11/25 18:34:16;;;;;;;42.20;20.60;;;7.20;98.00;;;;;;8426502;28;20876;-80
2021/11/25 18:38:17;;;;;;;44.10;20.30;;;7.30;98.00;;;;;;8425635;28;20435;-80
2021/11/25 18:42:18;;;;;;;46.90;21.17;;;7.30;98.20;;;;;;8440103;28;20179;-81
2021/11/25 18:46:20;;;;;;;43.07;22.03;;;7.40;98.00;;;;;;8429125;28;20471;-80
2021/11/25 18:50:22;;;;;;;43.80;22.40;;;7.40;97.90;;;;;;8427749;28;20190;-80
2021/11/25 18:54:22;;;;;;;41.47;19.63;;;7.50;97.90;;;;;;8425845;28;20578;-79
2021/11/25 18:58:23;;;;;;;40.37;20.33;;;7.50;97.80;;;;;;8433401;28;20437;-81
2021/11/25 19:02:25;;;;;;;58.40;23.20;;;7.40;97.60;;;;;;8432086;28;20217;-81
2021/11/25 19:06:27;;;;;;;52.93;22.13;;;7.40;97.60;;;;;;8448168;28;20459;-79
2021/11/25 19:10:27;;;;;;;57.50;23.57;;;7.30;97.60;;;;;;8421039;28;20449;-80
2021/11/25 19:14:28;;;;;;;43.00;20.77;;;7.20;97.70;;;;;;8424890;28;20508;-80
2021/11/25 19:18:29;;;;;;;52.03;23.20;;;7.20;97.90;;;;;;8446445;28;20209;-82
2021/11/25 19:22:30;;;;;;;55.90;24.13;;;7.10;98.00;;;;;;8453152;28;20477;-81
2021/11/25 19:26:31;;;;;;;52.77;23.53;;;7.10;98.10;;;;;;8431794;28;20651;-82
2021/11/25 19:30:31;;;;;;;56.50;22.37;;;7.10;98.20;;;;;;8443802;28;20176;-80
2021/11/25 19:34:34;;;;;;;45.53;21.80;;;7.20;98.40;;;;;;8442359;28;20238;-82
2021/11/25 19:38:34;;;;;;;47.73;22.67;;;7.20;98.50;;;;;;8434530;28;20736;-79
2021/11/25 19:42:36;;;;;;;51.80;21.33;;;7.30;98.50;;;;;;8433199;28;20448;-80
2021/11/25 19:46:37;;;;;;;47.03;19.83;;;7.40;98.50;;;;;;8445285;28;20193;-80
2021/11/25 19:50:38;;;;;;;38.03;16.77;;;7.40;98.40;;;;;;8428840;28;21004;-79
2021/11/25 19:54:39;;;;;;;49.87;19.90;;;7.50;98.40;;;;;;8418944;28;20202;-80
2021/11/25 19:58:40;;;;;;;41.67;18.83;;;7.50;98.40;;;;;;8417364;28;20445;-79
2021/11/25 20:02:41;;;;;;;36.60;17.63;;;7.60;98.40;;;;;;8408357;28;20196;-80
2021/11/25 20:06:44;;;;;;;38.40;18.23;;;7.60;98.30;;;;;;8433263;28;20477;-80
2021/11/25 20:10:45;;;;;;;36.53;17.67;;;7.70;98.20;;;;;;8419717;28;20191;-81
2021/11/25 20:14:45;;;;;;;33.57;15.50;;;7.70;98.10;;;;;;8420244;28;20515;-81
2021/11/25 20:18:47;;;;;;;25.90;15.00;;;7.80;98.10;;;;;;8433962;28;20203;-81
2021/11/25 20:22:47;;;;;;;35.60;16.70;;;7.80;98.00;;;;;;8431400;28;20189;-80
2021/11/25 20:26:48;;;;;;;36.77;18.10;;;7.90;97.90;;;;;;8422638;28;20464;-80
2021/11/25 20:30:49;;;;;;;37.57;16.40;;;7.90;97.80;;;;;;8437912;28;20804;-80
2021/11/25 20:34:51;;;;;;;30.63;15.83;;;8.00;97.70;;;;;;8425656;28;20496;-81
2021/11/25 20:38:52;;;;;;;31.77;13.60;;;7.90;97.70;;;;;;8446471;28;20448;-81
2021/11/25 20:42:54;;;;;;;33.43;13.70;;;8.00;97.60;;;;;;8431489;28;20475;-80
2021/11/25 20:46:56;;;;;;;33.47;14.37;;;8.00;97.60;;;;;;8433164;28;20195;-79
2021/11/25 20:50:56;;;;;;;42.43;15.57;;;8.00;97.60;;;;;;8450360;28;22377;-81
2021/11/25 20:54:57;;;;;;;30.30;13.63;;;8.00;97.60;;;;;;8438939;28;20469;-80
2021/11/25 20:58:58;;;;;;;33.53;15.10;;;7.90;97.60;;;;;;8427390;28;20192;-78
2021/11/25 21:02:58;;;;;;;28.63;13.70;;;7.90;97.60;;;;;;8436918;28;20187;-79
2021/11/25 21:06:59;;;;;;;26.80;12.83;;;7.90;97.70;;;;;;8418407;28;20189;-80